sensor_id;sensor_type;location;lat;lon;timestamp;temperature;humidity
17956;DHT22;27666;51.498;11.966;2022-09-27T00:02:38;14.20;99.90
17956;DHT22;27666;51.498;11.966;2022-09-27T00:05:25;14.20;99.90
17956;DHT22;27666;51.498;11.966;2022-09-27T00:08:11;14.20;99.90
17956;DHT22;27666;51.498;11.966;2022-09-27T00:10:59;14.10;99.90
17956;DHT22;27666;51.498;11.966;2022-09-27T00:13:46;14.10;99.90
17956;DHT22;27666;51.498;11.966;2022-09-27T00:16:36;14.10;99.90
17956;DHT22;27666;51.498;11.966;2022-09-27T00:19:23;14.00;99.90
17956;DHT22;27666;51.498;11.966;2022-09-27T00:22:10;14.10;99.90
17956;DHT22;27666;51.498;11.966;2022-09-27T00:24:56;14.10;99.90
17956;DHT22;27666;51.498;11.966;2022-09-27T00:27:43;14.10;99.90
17956;DHT22;27666;51.498;11.966;2022-09-27T00:30:29;14.00;99.90
17956;DHT22;27666;51.498;11.966;2022-09-27T00:33:17;14.00;99.90
17956;DHT22;27666;51.498;11.966;2022-09-27T00:36:05;14.00;99.90
17956;DHT22;27666;51.498;11.966;2022-09-27T00:38:52;14.10;99.90
17956;DHT22;27666;51.498;11.966;2022-09-27T00:41:38;14.10;99.90
17956;DHT22;27666;51.498;11.966;2022-09-27T00:44:58;14.00;99.90
17956;DHT22;27666;51.498;11.966;2022-09-27T00:47:49;14.10;99.90
17956;DHT22;27666;51.498;11.966;2022-09-27T00:50:40;14.10;99.90
17956;DHT22;27666;51.498;11.966;2022-09-27T00:53:30;14.20;99.90
17956;DHT22;27666;51.498;11.966;2022-09-27T00:56:22;14.00;99.90
17956;DHT22;27666;51.498;11.966;2022-09-27T00:59:13;14.10;99.90
17956;DHT22;27666;51.498;11.966;2022-09-27T01:02:02;14.00;99.90
17956;DHT22;27666;51.498;11.966;2022-09-27T01:04:50;13.90;99.90
17956;DHT22;27666;51.498;11.966;2022-09-27T01:07:38;14.00;99.90
17956;DHT22;27666;51.498;11.966;2022-09-27T01:10:28;13.90;99.90
17956;DHT22;27666;51.498;11.966;2022-09-27T01:13:19;13.90;99.90
17956;DHT22;27666;51.498;11.966;2022-09-27T01:16:18;13.90;99.90
17956;DHT22;27666;51.498;11.966;2022-09-27T01:19:13;13.80;99.90
17956;DHT22;27666;51.498;11.966;2022-09-27T01:22:08;13.90;99.90
17956;DHT22;27666;51.498;11.966;2022-09-27T01:25:11;14.00;99.90
17956;DHT22;27666;51.498;11.966;2022-09-27T01:28:19;13.90;99.90
17956;DHT22;27666;51.498;11.966;2022-09-27T01:31:14;13.90;99.90
17956;DHT22;27666;51.498;11.966;2022-09-27T01:34:07;13.80;99.90
17956;DHT22;27666;51.498;11.966;2022-09-27T01:37:04;13.80;99.90
17956;DHT22;27666;51.498;11.966;2022-09-27T01:39:58;13.80;99.90
17956;DHT22;27666;51.498;11.966;2022-09-27T01:42:49;13.80;99.90
17956;DHT22;27666;51.498;11.966;2022-09-27T01:45:42;13.80;99.90
17956;DHT22;27666;51.498;11.966;2022-09-27T01:48:35;13.90;99.90
17956;DHT22;27666;51.498;11.966;2022-09-27T01:51:25;13.90;99.90
17956;DHT22;27666;51.498;11.966;2022-09-27T01:54:16;13.90;99.90
17956;DHT22;27666;51.498;11.966;2022-09-27T01:57:06;13.90;99.90
17956;DHT22;27666;51.498;11.966;2022-09-27T01:59:58;13.90;99.90
17956;DHT22;27666;51.498;11.966;2022-09-27T02:02:49;13.90;99.90
17956;DHT22;27666;51.498;11.966;2022-09-27T02:05:40;13.80;99.90
17956;DHT22;27666;51.498;11.966;2022-09-27T02:08:32;13.90;99.90
17956;DHT22;27666;51.498;11.966;2022-09-27T02:11:21;13.80;99.90
17956;DHT22;27666;51.498;11.966;2022-09-27T02:14:11;13.80;99.90
17956;DHT22;27666;51.498;11.966;2022-09-27T02:17:07;13.80;99.90
17956;DHT22;27666;51.498;11.966;2022-09-27T02:20:00;13.80;99.90
17956;DHT22;27666;51.498;11.966;2022-09-27T02:22:56;13.80;99.90
17956;DHT22;27666;51.498;11.966;2022-09-27T02:25:50;13.70;99.90
17956;DHT22;27666;51.498;11.966;2022-09-27T02:28:41;13.70;99.90
17956;DHT22;27666;51.498;11.966;2022-09-27T02:31:28;13.80;99.90
17956;DHT22;27666;51.498;11.966;2022-09-27T02:34:18;13.70;99.90
17956;DHT22;27666;51.498;11.966;2022-09-27T02:37:05;13.70;99.90
17956;DHT22;27666;51.498;11.966;2022-09-27T02:39:53;13.70;99.90
17956;DHT22;27666;51.498;11.966;2022-09-27T02:42:41;13.80;99.90
17956;DHT22;27666;51.498;11.966;2022-09-27T02:45:30;13.70;99.90
17956;DHT22;27666;51.498;11.966;2022-09-27T02:48:24;13.70;99.90
17956;DHT22;27666;51.498;11.966;2022-09-27T02:51:24;13.70;99.90
17956;DHT22;27666;51.498;11.966;2022-09-27T02:54:19;13.70;99.90
17956;DHT22;27666;51.498;11.966;2022-09-27T02:57:21;13.70;99.90
17956;DHT22;27666;51.498;11.966;2022-09-27T03:00:13;13.70;99.90
17956;DHT22;27666;51.498;11.966;2022-09-27T03:03:05;13.70;99.90
17956;DHT22;27666;51.498;11.966;2022-09-27T03:06:01;13.60;99.90
17956;DHT22;27666;51.498;11.966;2022-09-27T03:08:49;13.60;99.90
17956;DHT22;27666;51.498;11.966;2022-09-27T03:11:35;13.60;99.90
17956;DHT22;27666;51.498;11.966;2022-09-27T03:14:24;13.60;99.90
17956;DHT22;27666;51.498;11.966;2022-09-27T03:17:10;13.60;99.90
17956;DHT22;27666;51.498;11.966;2022-09-27T03:19:56;13.60;99.90
17956;DHT22;27666;51.498;11.966;2022-09-27T03:22:43;13.60;99.90
17956;DHT22;27666;51.498;11.966;2022-09-27T03:25:29;13.60;99.90
17956;DHT22;27666;51.498;11.966;2022-09-27T03:28:15;13.50;99.90
17956;DHT22;27666;51.498;11.966;2022-09-27T03:31:04;13.60;99.90
17956;DHT22;27666;51.498;11.966;2022-09-27T03:33:50;13.50;99.90
17956;DHT22;27666;51.498;11.966;2022-09-27T03:36:37;13.60;99.90
17956;DHT22;27666;51.498;11.966;2022-09-27T03:39:24;13.60;99.90
17956;DHT22;27666;51.498;11.966;2022-09-27T03:42:11;13.60;99.90
17956;DHT22;27666;51.498;11.966;2022-09-27T03:44:57;13.60;99.90
17956;DHT22;27666;51.498;11.966;2022-09-27T03:47:45;13.70;99.90
17956;DHT22;27666;51.498;11.966;2022-09-27T03:50:32;13.70;99.90
17956;DHT22;27666;51.498;11.966;2022-09-27T03:53:18;13.60;99.90
17956;DHT22;27666;51.498;11.966;2022-09-27T03:56:05;13.60;99.90
17956;DHT22;27666;51.498;11.966;2022-09-27T03:58:51;13.60;99.90
17956;DHT22;27666;51.498;11.966;2022-09-27T04:01:38;13.60;99.90
17956;DHT22;27666;51.498;11.966;2022-09-27T04:04:25;13.60;99.90
17956;DHT22;27666;51.498;11.966;2022-09-27T04:07:12;13.60;99.90
17956;DHT22;27666;51.498;11.966;2022-09-27T04:09:58;13.60;99.90
17956;DHT22;27666;51.498;11.966;2022-09-27T04:12:45;13.60;99.90
17956;DHT22;27666;51.498;11.966;2022-09-27T04:15:31;13.50;99.90
17956;DHT22;27666;51.498;11.966;2022-09-27T04:18:18;13.60;99.90
17956;DHT22;27666;51.498;11.966;2022-09-27T04:21:05;13.60;99.90
17956;DHT22;27666;51.498;11.966;2022-09-27T04:23:52;13.60;99.90
17956;DHT22;27666;51.498;11.966;2022-09-27T04:26:39;13.60;99.90
17956;DHT22;27666;51.498;11.966;2022-09-27T04:29:25;13.60;99.90
17956;DHT22;27666;51.498;11.966;2022-09-27T04:32:12;13.60;99.90
17956;DHT22;27666;51.498;11.966;2022-09-27T04:34:58;13.60;99.90
17956;DHT22;27666;51.498;11.966;2022-09-27T04:38:04;13.50;99.90
17956;DHT22;27666;51.498;11.966;2022-09-27T04:40:50;13.50;99.90
17956;DHT22;27666;51.498;11.966;2022-09-27T04:43:37;13.50;99.90
17956;DHT22;27666;51.498;11.966;2022-09-27T04:46:23;13.50;99.90
17956;DHT22;27666;51.498;11.966;2022-09-27T04:49:10;13.50;99.90
17956;DHT22;27666;51.498;11.966;2022-09-27T04:51:56;13.60;99.90
17956;DHT22;27666;51.498;11.966;2022-09-27T04:54:44;13.60;99.90
17956;DHT22;27666;51.498;11.966;2022-09-27T04:57:30;13.60;99.90
17956;DHT22;27666;51.498;11.966;2022-09-27T05:00:17;13.60;99.90
17956;DHT22;27666;51.498;11.966;2022-09-27T05:03:03;13.60;99.90
17956;DHT22;27666;51.498;11.966;2022-09-27T05:05:50;13.60;99.90
17956;DHT22;27666;51.498;11.966;2022-09-27T05:08:36;13.60;99.90
17956;DHT22;27666;51.498;11.966;2022-09-27T05:11:24;13.50;99.90
17956;DHT22;27666;51.498;11.966;2022-09-27T05:14:11;13.50;99.90
17956;DHT22;27666;51.498;11.966;2022-09-27T05:16:58;13.50;99.90
17956;DHT22;27666;51.498;11.966;2022-09-27T05:19:45;13.50;99.90
17956;DHT22;27666;51.498;11.966;2022-09-27T05:22:31;13.40;99.90
17956;DHT22;27666;51.498;11.966;2022-09-27T05:25:18;13.50;99.90
17956;DHT22;27666;51.498;11.966;2022-09-27T05:28:05;13.60;99.90
17956;DHT22;27666;51.498;11.966;2022-09-27T05:30:53;13.60;99.90
17956;DHT22;27666;51.498;11.966;2022-09-27T05:33:39;13.60;99.90
17956;DHT22;27666;51.498;11.966;2022-09-27T05:36:26;13.60;99.90
17956;DHT22;27666;51.498;11.966;2022-09-27T05:39:13;13.60;99.90
17956;DHT22;27666;51.498;11.966;2022-09-27T05:42:00;13.50;99.90
17956;DHT22;27666;51.498;11.966;2022-09-27T05:44:50;13.50;99.90
17956;DHT22;27666;51.498;11.966;2022-09-27T05:47:36;13.50;99.90
17956;DHT22;27666;51.498;11.966;2022-09-27T05:50:23;13.50;99.90
17956;DHT22;27666;51.498;11.966;2022-09-27T05:53:10;13.40;99.90
17956;DHT22;27666;51.498;11.966;2022-09-27T05:56:00;13.40;99.90
17956;DHT22;27666;51.498;11.966;2022-09-27T05:58:47;13.50;99.90
17956;DHT22;27666;51.498;11.966;2022-09-27T06:01:34;13.50;99.90
17956;DHT22;27666;51.498;11.966;2022-09-27T06:04:21;13.50;99.90
17956;DHT22;27666;51.498;11.966;2022-09-27T06:07:07;13.50;99.90
17956;DHT22;27666;51.498;11.966;2022-09-27T06:09:53;13.50;99.90
17956;DHT22;27666;51.498;11.966;2022-09-27T06:12:40;13.60;99.90
17956;DHT22;27666;51.498;11.966;2022-09-27T06:15:27;13.60;99.90
17956;DHT22;27666;51.498;11.966;2022-09-27T06:18:14;13.70;99.90
17956;DHT22;27666;51.498;11.966;2022-09-27T06:21:04;13.60;99.90
17956;DHT22;27666;51.498;11.966;2022-09-27T06:23:51;13.70;99.90
17956;DHT22;27666;51.498;11.966;2022-09-27T06:26:39;13.70;99.90
17956;DHT22;27666;51.498;11.966;2022-09-27T06:29:26;13.80;99.90
17956;DHT22;27666;51.498;11.966;2022-09-27T06:32:13;13.80;99.90
17956;DHT22;27666;51.498;11.966;2022-09-27T06:35:01;13.90;99.90
17956;DHT22;27666;51.498;11.966;2022-09-27T06:37:49;13.90;99.90
17956;DHT22;27666;51.498;11.966;2022-09-27T06:40:35;14.10;99.90
17956;DHT22;27666;51.498;11.966;2022-09-27T06:43:22;14.30;99.90
17956;DHT22;27666;51.498;11.966;2022-09-27T06:46:10;14.30;99.90
17956;DHT22;27666;51.498;11.966;2022-09-27T06:48:56;14.30;99.90
17956;DHT22;27666;51.498;11.966;2022-09-27T06:51:44;14.30;99.90
17956;DHT22;27666;51.498;11.966;2022-09-27T06:54:30;14.30;99.90
17956;DHT22;27666;51.498;11.966;2022-09-27T06:57:17;14.40;99.90
17956;DHT22;27666;51.498;11.966;2022-09-27T07:00:24;14.40;99.90
17956;DHT22;27666;51.498;11.966;2022-09-27T07:03:11;14.50;99.90
17956;DHT22;27666;51.498;11.966;2022-09-27T07:06:00;14.60;99.90
17956;DHT22;27666;51.498;11.966;2022-09-27T07:08:50;14.60;99.90
17956;DHT22;27666;51.498;11.966;2022-09-27T07:14:24;15.20;99.90
17956;DHT22;27666;51.498;11.966;2022-09-27T07:17:11;15.30;99.90
17956;DHT22;27666;51.498;11.966;2022-09-27T07:19:58;15.40;99.90
17956;DHT22;27666;51.498;11.966;2022-09-27T07:22:44;15.60;99.90
17956;DHT22;27666;51.498;11.966;2022-09-27T07:25:32;15.70;99.90
17956;DHT22;27666;51.498;11.966;2022-09-27T07:28:19;15.60;99.90
17956;DHT22;27666;51.498;11.966;2022-09-27T07:31:07;15.60;99.90
17956;DHT22;27666;51.498;11.966;2022-09-27T07:33:54;15.50;99.90
17956;DHT22;27666;51.498;11.966;2022-09-27T07:36:41;15.50;99.90
17956;DHT22;27666;51.498;11.966;2022-09-27T07:39:27;15.50;99.90
17956;DHT22;27666;51.498;11.966;2022-09-27T07:42:15;15.50;99.90
17956;DHT22;27666;51.498;11.966;2022-09-27T07:45:01;15.40;99.90
17956;DHT22;27666;51.498;11.966;2022-09-27T07:47:53;15.20;99.90
17956;DHT22;27666;51.498;11.966;2022-09-27T07:50:40;15.00;99.90
17956;DHT22;27666;51.498;11.966;2022-09-27T07:53:26;14.90;99.90
17956;DHT22;27666;51.498;11.966;2022-09-27T07:56:12;14.80;99.90
17956;DHT22;27666;51.498;11.966;2022-09-27T07:59:00;14.80;99.90
17956;DHT22;27666;51.498;11.966;2022-09-27T08:01:47;14.60;99.90
17956;DHT22;27666;51.498;11.966;2022-09-27T08:04:33;14.40;99.90
17956;DHT22;27666;51.498;11.966;2022-09-27T08:07:19;14.50;99.90
17956;DHT22;27666;51.498;11.966;2022-09-27T08:10:07;14.40;99.90
17956;DHT22;27666;51.498;11.966;2022-09-27T08:12:54;14.40;99.90
17956;DHT22;27666;51.498;11.966;2022-09-27T08:15:41;14.40;99.90
17956;DHT22;27666;51.498;11.966;2022-09-27T08:18:28;14.50;99.90
17956;DHT22;27666;51.498;11.966;2022-09-27T08:21:14;14.60;99.90
17956;DHT22;27666;51.498;11.966;2022-09-27T08:24:01;14.80;99.90
17956;DHT22;27666;51.498;11.966;2022-09-27T08:26:48;14.90;99.90
17956;DHT22;27666;51.498;11.966;2022-09-27T08:29:34;14.90;99.90
17956;DHT22;27666;51.498;11.966;2022-09-27T08:32:26;14.80;99.90
17956;DHT22;27666;51.498;11.966;2022-09-27T08:35:14;14.70;99.90
17956;DHT22;27666;51.498;11.966;2022-09-27T08:38:01;14.70;99.90
17956;DHT22;27666;51.498;11.966;2022-09-27T08:40:53;14.70;99.90
17956;DHT22;27666;51.498;11.966;2022-09-27T08:43:44;14.70;99.90
17956;DHT22;27666;51.498;11.966;2022-09-27T08:46:40;14.70;99.90
17956;DHT22;27666;51.498;11.966;2022-09-27T08:49:34;14.70;99.90
17956;DHT22;27666;51.498;11.966;2022-09-27T08:52:25;14.60;99.90
17956;DHT22;27666;51.498;11.966;2022-09-27T08:55:19;14.60;99.90
17956;DHT22;27666;51.498;11.966;2022-09-27T08:58:12;14.70;99.90
17956;DHT22;27666;51.498;11.966;2022-09-27T09:01:02;14.60;99.90
17956;DHT22;27666;51.498;11.966;2022-09-27T09:03:53;14.70;99.90
17956;DHT22;27666;51.498;11.966;2022-09-27T09:06:47;14.60;99.90
17956;DHT22;27666;51.498;11.966;2022-09-27T09:09:39;14.40;99.90
17956;DHT22;27666;51.498;11.966;2022-09-27T09:12:39;14.10;99.90
17956;DHT22;27666;51.498;11.966;2022-09-27T09:15:37;13.80;99.90
17956;DHT22;27666;51.498;11.966;2022-09-27T09:18:52;13.70;99.90
17956;DHT22;27666;51.498;11.966;2022-09-27T09:21:49;13.60;99.90
17956;DHT22;27666;51.498;11.966;2022-09-27T09:24:48;13.70;99.90
17956;DHT22;27666;51.498;11.966;2022-09-27T09:27:41;13.80;99.90
17956;DHT22;27666;51.498;11.966;2022-09-27T09:30:40;14.00;99.90
17956;DHT22;27666;51.498;11.966;2022-09-27T09:33:30;14.20;99.90
17956;DHT22;27666;51.498;11.966;2022-09-27T09:36:24;14.20;99.90
17956;DHT22;27666;51.498;11.966;2022-09-27T09:39:16;14.10;99.90
17956;DHT22;27666;51.498;11.966;2022-09-27T09:42:07;14.10;99.90
17956;DHT22;27666;51.498;11.966;2022-09-27T09:44:58;14.00;99.90
17956;DHT22;27666;51.498;11.966;2022-09-27T09:47:51;14.00;99.90
17956;DHT22;27666;51.498;11.966;2022-09-27T09:50:43;14.10;99.90
17956;DHT22;27666;51.498;11.966;2022-09-27T09:53:37;14.20;99.90
17956;DHT22;27666;51.498;11.966;2022-09-27T09:56:29;14.20;99.90
17956;DHT22;27666;51.498;11.966;2022-09-27T09:59:19;14.10;99.90
17956;DHT22;27666;51.498;11.966;2022-09-27T10:02:20;14.10;99.90
17956;DHT22;27666;51.498;11.966;2022-09-27T10:05:12;14.30;99.90
17956;DHT22;27666;51.498;11.966;2022-09-27T10:08:01;14.50;99.90
17956;DHT22;27666;51.498;11.966;2022-09-27T10:10:49;14.60;99.90
17956;DHT22;27666;51.498;11.966;2022-09-27T10:13:37;14.60;99.90
17956;DHT22;27666;51.498;11.966;2022-09-27T10:16:25;14.40;99.90
17956;DHT22;27666;51.498;11.966;2022-09-27T10:19:16;14.40;99.90
17956;DHT22;27666;51.498;11.966;2022-09-27T10:22:16;14.30;99.90
17956;DHT22;27666;51.498;11.966;2022-09-27T10:25:06;14.40;99.90
17956;DHT22;27666;51.498;11.966;2022-09-27T10:27:54;14.60;99.90
17956;DHT22;27666;51.498;11.966;2022-09-27T10:30:42;14.80;99.90
17956;DHT22;27666;51.498;11.966;2022-09-27T10:33:29;14.90;99.90
17956;DHT22;27666;51.498;11.966;2022-09-27T10:36:22;15.00;99.90
17956;DHT22;27666;51.498;11.966;2022-09-27T10:39:20;15.10;99.90
17956;DHT22;27666;51.498;11.966;2022-09-27T10:42:20;15.30;99.90
17956;DHT22;27666;51.498;11.966;2022-09-27T10:45:27;15.30;99.90
17956;DHT22;27666;51.498;11.966;2022-09-27T10:48:20;15.10;99.90
17956;DHT22;27666;51.498;11.966;2022-09-27T10:51:21;15.00;99.90
17956;DHT22;27666;51.498;11.966;2022-09-27T10:54:18;15.00;99.90
17956;DHT22;27666;51.498;11.966;2022-09-27T10:57:17;15.10;99.90
17956;DHT22;27666;51.498;11.966;2022-09-27T11:00:07;15.20;99.90
17956;DHT22;27666;51.498;11.966;2022-09-27T11:02:55;15.20;99.90
17956;DHT22;27666;51.498;11.966;2022-09-27T11:05:44;15.30;99.90
17956;DHT22;27666;51.498;11.966;2022-09-27T11:08:32;15.50;99.90
17956;DHT22;27666;51.498;11.966;2022-09-27T11:11:19;15.50;99.90
17956;DHT22;27666;51.498;11.966;2022-09-27T11:14:18;15.70;99.90
17956;DHT22;27666;51.498;11.966;2022-09-27T11:17:12;15.60;99.90
17956;DHT22;27666;51.498;11.966;2022-09-27T11:20:15;15.50;99.90
17956;DHT22;27666;51.498;11.966;2022-09-27T11:23:19;15.30;99.90
17956;DHT22;27666;51.498;11.966;2022-09-27T11:26:18;15.30;99.90
17956;DHT22;27666;51.498;11.966;2022-09-27T11:29:17;15.50;99.90
17956;DHT22;27666;51.498;11.966;2022-09-27T11:32:15;15.60;99.90
17956;DHT22;27666;51.498;11.966;2022-09-27T11:35:24;15.50;99.90
17956;DHT22;27666;51.498;11.966;2022-09-27T11:38:24;15.60;99.90
17956;DHT22;27666;51.498;11.966;2022-09-27T11:41:49;15.80;99.90
17956;DHT22;27666;51.498;11.966;2022-09-27T11:44:57;15.80;99.90
17956;DHT22;27666;51.498;11.966;2022-09-27T11:48:18;15.50;99.90
17956;DHT22;27666;51.498;11.966;2022-09-27T11:51:12;15.30;99.90
17956;DHT22;27666;51.498;11.966;2022-09-27T11:54:19;15.30;99.90
17956;DHT22;27666;51.498;11.966;2022-09-27T11:57:12;15.40;99.90
17956;DHT22;27666;51.498;11.966;2022-09-27T12:00:13;15.50;99.90
17956;DHT22;27666;51.498;11.966;2022-09-27T12:06:30;15.70;99.90
17956;DHT22;27666;51.498;11.966;2022-09-27T12:09:23;15.70;99.90
17956;DHT22;27666;51.498;11.966;2022-09-27T12:12:16;15.80;99.90
17956;DHT22;27666;51.498;11.966;2022-09-27T12:15:11;15.90;99.90
17956;DHT22;27666;51.498;11.966;2022-09-27T12:18:06;16.00;99.90
17956;DHT22;27666;51.498;11.966;2022-09-27T12:20:53;16.00;99.90
17956;DHT22;27666;51.498;11.966;2022-09-27T12:23:42;16.10;99.90
17956;DHT22;27666;51.498;11.966;2022-09-27T12:26:34;16.20;99.90
17956;DHT22;27666;51.498;11.966;2022-09-27T12:29:25;16.20;99.90
17956;DHT22;27666;51.498;11.966;2022-09-27T12:32:17;16.20;99.90
17956;DHT22;27666;51.498;11.966;2022-09-27T12:35:12;16.10;99.90
17956;DHT22;27666;51.498;11.966;2022-09-27T12:38:03;16.00;99.90
17956;DHT22;27666;51.498;11.966;2022-09-27T12:40:53;16.10;99.90
17956;DHT22;27666;51.498;11.966;2022-09-27T12:43:45;16.30;99.90
17956;DHT22;27666;51.498;11.966;2022-09-27T12:46:45;16.30;99.90
17956;DHT22;27666;51.498;11.966;2022-09-27T12:49:41;16.40;99.90
17956;DHT22;27666;51.498;11.966;2022-09-27T12:52:35;16.50;99.90
17956;DHT22;27666;51.498;11.966;2022-09-27T12:55:49;16.50;99.90
17956;DHT22;27666;51.498;11.966;2022-09-27T13:02:25;16.60;99.90
17956;DHT22;27666;51.498;11.966;2022-09-27T13:05:33;16.50;99.90
17956;DHT22;27666;51.498;11.966;2022-09-27T13:08:36;16.40;99.90
17956;DHT22;27666;51.498;11.966;2022-09-27T13:11:28;16.30;99.90
17956;DHT22;27666;51.498;11.966;2022-09-27T13:14:21;16.40;99.90
17956;DHT22;27666;51.498;11.966;2022-09-27T13:17:33;16.30;99.90
17956;DHT22;27666;51.498;11.966;2022-09-27T13:20:40;16.40;99.90
17956;DHT22;27666;51.498;11.966;2022-09-27T13:23:58;16.20;99.90
17956;DHT22;27666;51.498;11.966;2022-09-27T13:26:47;15.90;99.90
17956;DHT22;27666;51.498;11.966;2022-09-27T13:29:35;15.90;99.90
17956;DHT22;27666;51.498;11.966;2022-09-27T13:32:22;15.90;99.90
17956;DHT22;27666;51.498;11.966;2022-09-27T13:35:11;15.80;99.90
17956;DHT22;27666;51.498;11.966;2022-09-27T13:38:03;15.90;99.90
17956;DHT22;27666;51.498;11.966;2022-09-27T13:40:51;16.00;99.90
17956;DHT22;27666;51.498;11.966;2022-09-27T13:43:58;16.10;99.90
17956;DHT22;27666;51.498;11.966;2022-09-27T13:46:54;16.00;99.90
17956;DHT22;27666;51.498;11.966;2022-09-27T13:49:45;16.10;99.90
17956;DHT22;27666;51.498;11.966;2022-09-27T13:52:35;16.00;99.90
17956;DHT22;27666;51.498;11.966;2022-09-27T13:55:40;15.90;99.90
17956;DHT22;27666;51.498;11.966;2022-09-27T13:58:42;15.70;99.90
17956;DHT22;27666;51.498;11.966;2022-09-27T14:01:32;15.50;99.90
17956;DHT22;27666;51.498;11.966;2022-09-27T14:04:25;15.40;99.90
17956;DHT22;27666;51.498;11.966;2022-09-27T14:07:15;15.20;99.90
17956;DHT22;27666;51.498;11.966;2022-09-27T14:10:03;15.10;99.90
17956;DHT22;27666;51.498;11.966;2022-09-27T14:12:51;14.80;99.90
17956;DHT22;27666;51.498;11.966;2022-09-27T14:15:38;14.70;99.90
17956;DHT22;27666;51.498;11.966;2022-09-27T14:18:25;14.60;99.90
17956;DHT22;27666;51.498;11.966;2022-09-27T14:21:17;14.50;99.90
17956;DHT22;27666;51.498;11.966;2022-09-27T14:24:24;14.40;99.90
17956;DHT22;27666;51.498;11.966;2022-09-27T14:27:15;14.40;99.90
17956;DHT22;27666;51.498;11.966;2022-09-27T14:30:12;14.50;99.90
17956;DHT22;27666;51.498;11.966;2022-09-27T14:32:59;14.60;99.90
17956;DHT22;27666;51.498;11.966;2022-09-27T14:35:47;14.60;99.90
17956;DHT22;27666;51.498;11.966;2022-09-27T14:38:53;14.60;99.90
17956;DHT22;27666;51.498;11.966;2022-09-27T14:41:43;14.60;99.90
17956;DHT22;27666;51.498;11.966;2022-09-27T14:44:29;14.60;99.90
17956;DHT22;27666;51.498;11.966;2022-09-27T14:47:18;14.60;99.90
17956;DHT22;27666;51.498;11.966;2022-09-27T14:50:17;14.80;99.90
17956;DHT22;27666;51.498;11.966;2022-09-27T14:53:21;14.90;99.90
17956;DHT22;27666;51.498;11.966;2022-09-27T14:56:13;14.90;99.90
17956;DHT22;27666;51.498;11.966;2022-09-27T14:59:06;14.80;99.90
17956;DHT22;27666;51.498;11.966;2022-09-27T15:01:53;14.70;99.90
17956;DHT22;27666;51.498;11.966;2022-09-27T15:04:43;14.50;99.90
17956;DHT22;27666;51.498;11.966;2022-09-27T15:07:31;14.50;99.90
17956;DHT22;27666;51.498;11.966;2022-09-27T15:10:19;14.50;99.90
17956;DHT22;27666;51.498;11.966;2022-09-27T15:13:13;14.50;99.90
17956;DHT22;27666;51.498;11.966;2022-09-27T15:16:01;14.50;99.90
17956;DHT22;27666;51.498;11.966;2022-09-27T15:18:59;14.40;99.90
17956;DHT22;27666;51.498;11.966;2022-09-27T15:21:47;14.50;99.90
17956;DHT22;27666;51.498;11.966;2022-09-27T15:24:36;14.40;99.90
17956;DHT22;27666;51.498;11.966;2022-09-27T15:27:24;14.30;99.90
17956;DHT22;27666;51.498;11.966;2022-09-27T15:30:17;14.30;99.90
17956;DHT22;27666;51.498;11.966;2022-09-27T15:33:05;14.30;99.90
17956;DHT22;27666;51.498;11.966;2022-09-27T15:35:53;14.20;99.90
17956;DHT22;27666;51.498;11.966;2022-09-27T15:38:41;14.10;99.90
17956;DHT22;27666;51.498;11.966;2022-09-27T15:42:04;14.00;99.90
17956;DHT22;27666;51.498;11.966;2022-09-27T15:44:52;13.80;99.90
17956;DHT22;27666;51.498;11.966;2022-09-27T15:47:47;13.80;99.90
17956;DHT22;27666;51.498;11.966;2022-09-27T15:50:37;13.80;99.90
17956;DHT22;27666;51.498;11.966;2022-09-27T15:53:42;13.80;99.90
17956;DHT22;27666;51.498;11.966;2022-09-27T15:56:29;13.70;99.90
17956;DHT22;27666;51.498;11.966;2022-09-27T15:59:20;13.70;99.90
17956;DHT22;27666;51.498;11.966;2022-09-27T16:02:13;13.70;99.90
17956;DHT22;27666;51.498;11.966;2022-09-27T16:05:02;13.70;99.90
17956;DHT22;27666;51.498;11.966;2022-09-27T16:07:49;13.60;99.90
17956;DHT22;27666;51.498;11.966;2022-09-27T16:10:37;13.70;99.90
17956;DHT22;27666;51.498;11.966;2022-09-27T16:13:24;13.70;99.90
17956;DHT22;27666;51.498;11.966;2022-09-27T16:16:18;13.90;99.90
17956;DHT22;27666;51.498;11.966;2022-09-27T16:19:05;13.90;99.90
17956;DHT22;27666;51.498;11.966;2022-09-27T16:21:53;13.90;99.90
17956;DHT22;27666;51.498;11.966;2022-09-27T16:24:39;14.00;99.90
17956;DHT22;27666;51.498;11.966;2022-09-27T16:27:26;13.90;99.90
17956;DHT22;27666;51.498;11.966;2022-09-27T16:30:13;13.90;99.90
17956;DHT22;27666;51.498;11.966;2022-09-27T16:33:00;13.90;99.90
17956;DHT22;27666;51.498;11.966;2022-09-27T16:35:46;13.80;99.90
17956;DHT22;27666;51.498;11.966;2022-09-27T16:38:35;13.70;99.90
17956;DHT22;27666;51.498;11.966;2022-09-27T16:41:22;13.70;99.90
17956;DHT22;27666;51.498;11.966;2022-09-27T16:44:11;13.60;99.90
17956;DHT22;27666;51.498;11.966;2022-09-27T16:46:57;13.70;99.90
17956;DHT22;27666;51.498;11.966;2022-09-27T16:49:44;13.70;99.90
17956;DHT22;27666;51.498;11.966;2022-09-27T16:52:48;13.60;99.90
17956;DHT22;27666;51.498;11.966;2022-09-27T16:55:37;13.60;99.90
17956;DHT22;27666;51.498;11.966;2022-09-27T16:58:24;13.50;99.90
17956;DHT22;27666;51.498;11.966;2022-09-27T17:01:10;13.50;99.90
17956;DHT22;27666;51.498;11.966;2022-09-27T17:03:57;13.50;99.90
17956;DHT22;27666;51.498;11.966;2022-09-27T17:06:43;13.40;99.90
17956;DHT22;27666;51.498;11.966;2022-09-27T17:09:30;13.30;99.90
17956;DHT22;27666;51.498;11.966;2022-09-27T17:12:18;13.40;99.90
17956;DHT22;27666;51.498;11.966;2022-09-27T17:15:05;13.30;99.90
17956;DHT22;27666;51.498;11.966;2022-09-27T17:17:52;13.30;99.90
17956;DHT22;27666;51.498;11.966;2022-09-27T17:20:39;13.20;99.90
17956;DHT22;27666;51.498;11.966;2022-09-27T17:23:25;13.20;99.90
17956;DHT22;27666;51.498;11.966;2022-09-27T17:26:15;13.20;99.90
17956;DHT22;27666;51.498;11.966;2022-09-27T17:29:04;13.30;99.90
17956;DHT22;27666;51.498;11.966;2022-09-27T17:31:52;13.30;99.90
17956;DHT22;27666;51.498;11.966;2022-09-27T17:34:38;13.30;99.90
17956;DHT22;27666;51.498;11.966;2022-09-27T17:37:27;13.30;99.90
17956;DHT22;27666;51.498;11.966;2022-09-27T17:40:13;13.40;99.90
17956;DHT22;27666;51.498;11.966;2022-09-27T17:43:00;13.50;99.90
17956;DHT22;27666;51.498;11.966;2022-09-27T17:45:49;13.50;99.90
17956;DHT22;27666;51.498;11.966;2022-09-27T17:48:36;13.50;99.90
17956;DHT22;27666;51.498;11.966;2022-09-27T17:51:41;13.40;99.90
17956;DHT22;27666;51.498;11.966;2022-09-27T17:54:27;13.20;99.90